Ljuberzy, Russia
Current Conditions -  °F | °C
As of 10:30 PM on Saturday 25 Oct 2014 (Local Time) from UUDD Reporting Station
Clear Clear  
Wind Chill: 19°   Ceiling: Unl
Heat Index: 25°   Visibility: 6mi
Dew Point: 12°   Wind: 4mph
Humidity: 59%   Direction: 220°SW
Pressure: 30.59"   Gusts: NA
Location:  55.67°N, 37.92°E
Report Text: UUDD 251930Z 22002MPS 180V280 CAVOK M04/M11 Q1036 3215009582010095 NOSIG
Loading
Personal Weather Stations






























Interactive Weather Map
Tropical Storm Tracking
New forecast layout! Learn more

10-Day Weather Forecast

Advertisements
Track Severe Weather on mobile